sensor_id;sensor_type;location;lat;lon;timestamp;temperature;humidity
45491;DHT22;31237;45.586;13.782;2023-05-27T00:00:07;19.30;65.50
45491;DHT22;31237;45.586;13.782;2023-05-27T00:02:33;19.30;65.50
45491;DHT22;31237;45.586;13.782;2023-05-27T00:04:59;19.20;65.40
45491;DHT22;31237;45.586;13.782;2023-05-27T00:07:25;19.20;65.40
45491;DHT22;31237;45.586;13.782;2023-05-27T00:09:51;19.20;65.50
45491;DHT22;31237;45.586;13.782;2023-05-27T00:12:17;19.20;65.60
45491;DHT22;31237;45.586;13.782;2023-05-27T00:14:43;19.10;65.60
45491;DHT22;31237;45.586;13.782;2023-05-27T00:17:10;19.10;65.50
45491;DHT22;31237;45.586;13.782;2023-05-27T00:19:40;19.10;65.70
45491;DHT22;31237;45.586;13.782;2023-05-27T00:22:06;19.00;65.50
45491;DHT22;31237;45.586;13.782;2023-05-27T00:24:35;19.00;66.20
45491;DHT22;31237;45.586;13.782;2023-05-27T00:27:05;19.00;65.40
45491;DHT22;31237;45.586;13.782;2023-05-27T00:29:31;18.90;65.40
45491;DHT22;31237;45.586;13.782;2023-05-27T00:31:57;18.90;65.40
45491;DHT22;31237;45.586;13.782;2023-05-27T00:34:22;18.90;65.30
45491;DHT22;31237;45.586;13.782;2023-05-27T00:36:48;18.90;65.30
45491;DHT22;31237;45.586;13.782;2023-05-27T00:39:16;18.90;65.30
45491;DHT22;31237;45.586;13.782;2023-05-27T00:41:47;18.80;65.30
45491;DHT22;31237;45.586;13.782;2023-05-27T00:44:14;18.80;65.20
45491;DHT22;31237;45.586;13.782;2023-05-27T00:46:40;18.70;65.20
45491;DHT22;31237;45.586;13.782;2023-05-27T00:49:06;18.80;65.30
45491;DHT22;31237;45.586;13.782;2023-05-27T00:51:32;18.80;65.20
45491;DHT22;31237;45.586;13.782;2023-05-27T00:53:58;18.70;65.20
45491;DHT22;31237;45.586;13.782;2023-05-27T00:56:23;18.70;65.20
45491;DHT22;31237;45.586;13.782;2023-05-27T00:58:51;18.70;65.20
45491;DHT22;31237;45.586;13.782;2023-05-27T01:01:17;18.70;64.60
45491;DHT22;31237;45.586;13.782;2023-05-27T01:03:45;18.70;64.40
45491;DHT22;31237;45.586;13.782;2023-05-27T01:06:35;18.70;64.20
45491;DHT22;31237;45.586;13.782;2023-05-27T01:11:45;18.80;64.20
45491;DHT22;31237;45.586;13.782;2023-05-27T01:14:13;18.80;64.40
45491;DHT22;31237;45.586;13.782;2023-05-27T01:16:41;18.70;64.50
45491;DHT22;31237;45.586;13.782;2023-05-27T01:19:30;18.70;64.80
45491;DHT22;31237;45.586;13.782;2023-05-27T01:21:57;18.60;64.70
45491;DHT22;31237;45.586;13.782;2023-05-27T01:24:24;18.60;64.60
45491;DHT22;31237;45.586;13.782;2023-05-27T01:26:50;18.60;64.60
45491;DHT22;31237;45.586;13.782;2023-05-27T01:29:16;18.50;64.40
45491;DHT22;31237;45.586;13.782;2023-05-27T01:31:51;18.50;64.40
45491;DHT22;31237;45.586;13.782;2023-05-27T01:34:29;18.60;64.20
45491;DHT22;31237;45.586;13.782;2023-05-27T01:37:01;18.50;64.10
45491;DHT22;31237;45.586;13.782;2023-05-27T01:39:28;18.50;64.10
45491;DHT22;31237;45.586;13.782;2023-05-27T01:41:55;18.50;64.20
45491;DHT22;31237;45.586;13.782;2023-05-27T01:44:21;18.50;64.30
45491;DHT22;31237;45.586;13.782;2023-05-27T01:46:48;18.40;64.40
45491;DHT22;31237;45.586;13.782;2023-05-27T01:49:13;18.40;64.50
45491;DHT22;31237;45.586;13.782;2023-05-27T01:51:39;18.30;64.70
45491;DHT22;31237;45.586;13.782;2023-05-27T01:54:05;18.30;64.80
45491;DHT22;31237;45.586;13.782;2023-05-27T01:56:31;18.20;64.90
45491;DHT22;31237;45.586;13.782;2023-05-27T01:58:57;18.10;65.00
45491;DHT22;31237;45.586;13.782;2023-05-27T02:01:23;18.10;65.40
45491;DHT22;31237;45.586;13.782;2023-05-27T02:03:49;18.00;65.50
45491;DHT22;31237;45.586;13.782;2023-05-27T02:06:14;18.00;65.80
45491;DHT22;31237;45.586;13.782;2023-05-27T02:08:40;17.90;65.90
45491;DHT22;31237;45.586;13.782;2023-05-27T02:11:06;17.90;66.00
45491;DHT22;31237;45.586;13.782;2023-05-27T02:13:32;17.90;66.10
45491;DHT22;31237;45.586;13.782;2023-05-27T02:15:57;17.80;66.10
45491;DHT22;31237;45.586;13.782;2023-05-27T02:18:23;17.90;66.20
45491;DHT22;31237;45.586;13.782;2023-05-27T02:20:50;17.90;66.20
45491;DHT22;31237;45.586;13.782;2023-05-27T02:23:16;17.80;66.00
45491;DHT22;31237;45.586;13.782;2023-05-27T02:25:42;17.90;66.00
45491;DHT22;31237;45.586;13.782;2023-05-27T02:28:07;17.90;65.90
45491;DHT22;31237;45.586;13.782;2023-05-27T02:30:33;17.90;65.80
45491;DHT22;31237;45.586;13.782;2023-05-27T02:32:59;17.90;65.80
45491;DHT22;31237;45.586;13.782;2023-05-27T02:35:25;17.90;65.80
45491;DHT22;31237;45.586;13.782;2023-05-27T02:37:50;17.90;65.90
45491;DHT22;31237;45.586;13.782;2023-05-27T02:40:29;17.90;65.80
45491;DHT22;31237;45.586;13.782;2023-05-27T02:42:58;17.90;65.70
45491;DHT22;31237;45.586;13.782;2023-05-27T02:45:24;17.90;65.50
45491;DHT22;31237;45.586;13.782;2023-05-27T02:47:50;18.00;65.50
45491;DHT22;31237;45.586;13.782;2023-05-27T02:50:16;18.00;65.30
45491;DHT22;31237;45.586;13.782;2023-05-27T02:52:42;18.00;65.30
45491;DHT22;31237;45.586;13.782;2023-05-27T02:55:08;18.00;65.20
45491;DHT22;31237;45.586;13.782;2023-05-27T02:57:33;18.00;65.10
45491;DHT22;31237;45.586;13.782;2023-05-27T02:59:59;18.00;65.00
45491;DHT22;31237;45.586;13.782;2023-05-27T03:02:25;18.00;64.80
45491;DHT22;31237;45.586;13.782;2023-05-27T03:04:50;18.00;64.80
45491;DHT22;31237;45.586;13.782;2023-05-27T03:07:16;18.10;64.80
45491;DHT22;31237;45.586;13.782;2023-05-27T03:09:42;18.10;64.90
45491;DHT22;31237;45.586;13.782;2023-05-27T03:12:08;18.00;65.20
45491;DHT22;31237;45.586;13.782;2023-05-27T03:14:33;18.00;65.00
45491;DHT22;31237;45.586;13.782;2023-05-27T03:16:59;18.00;65.10
45491;DHT22;31237;45.586;13.782;2023-05-27T03:19:25;18.00;65.10
45491;DHT22;31237;45.586;13.782;2023-05-27T03:21:51;17.90;65.10
45491;DHT22;31237;45.586;13.782;2023-05-27T03:24:17;17.90;65.10
45491;DHT22;31237;45.586;13.782;2023-05-27T03:26:43;17.90;65.10
45491;DHT22;31237;45.586;13.782;2023-05-27T03:29:08;17.90;65.30
45491;DHT22;31237;45.586;13.782;2023-05-27T03:31:34;17.90;65.30
45491;DHT22;31237;45.586;13.782;2023-05-27T03:34:00;17.90;65.40
45491;DHT22;31237;45.586;13.782;2023-05-27T03:36:25;17.80;65.50
45491;DHT22;31237;45.586;13.782;2023-05-27T03:38:52;17.80;65.60
45491;DHT22;31237;45.586;13.782;2023-05-27T03:41:17;17.80;65.70
45491;DHT22;31237;45.586;13.782;2023-05-27T03:43:43;17.80;65.70
45491;DHT22;31237;45.586;13.782;2023-05-27T03:46:09;17.80;65.70
45491;DHT22;31237;45.586;13.782;2023-05-27T03:48:35;17.80;65.70
45491;DHT22;31237;45.586;13.782;2023-05-27T03:51:00;17.80;65.80
45491;DHT22;31237;45.586;13.782;2023-05-27T03:53:26;17.80;65.70
45491;DHT22;31237;45.586;13.782;2023-05-27T03:55:51;17.80;66.40
45491;DHT22;31237;45.586;13.782;2023-05-27T03:58:17;17.80;65.80
45491;DHT22;31237;45.586;13.782;2023-05-27T04:00:43;17.80;65.90
45491;DHT22;31237;45.586;13.782;2023-05-27T04:03:09;17.80;66.00
45491;DHT22;31237;45.586;13.782;2023-05-27T04:05:35;17.90;66.20
45491;DHT22;31237;45.586;13.782;2023-05-27T04:08:03;17.90;66.20
45491;DHT22;31237;45.586;13.782;2023-05-27T04:10:29;17.90;66.20
45491;DHT22;31237;45.586;13.782;2023-05-27T04:12:55;17.90;66.10
45491;DHT22;31237;45.586;13.782;2023-05-27T04:15:21;17.90;66.20
45491;DHT22;31237;45.586;13.782;2023-05-27T04:17:46;17.90;66.10
45491;DHT22;31237;45.586;13.782;2023-05-27T04:20:12;18.00;66.20
45491;DHT22;31237;45.586;13.782;2023-05-27T04:22:42;18.00;66.30
45491;DHT22;31237;45.586;13.782;2023-05-27T04:25:09;18.00;66.40
45491;DHT22;31237;45.586;13.782;2023-05-27T04:27:35;18.00;66.50
45491;DHT22;31237;45.586;13.782;2023-05-27T04:30:03;18.00;66.60
45491;DHT22;31237;45.586;13.782;2023-05-27T04:32:29;18.00;66.70
45491;DHT22;31237;45.586;13.782;2023-05-27T04:35:01;18.00;66.60
45491;DHT22;31237;45.586;13.782;2023-05-27T04:37:27;18.10;66.50
45491;DHT22;31237;45.586;13.782;2023-05-27T04:39:54;18.10;66.50
45491;DHT22;31237;45.586;13.782;2023-05-27T04:42:23;18.10;66.60
45491;DHT22;31237;45.586;13.782;2023-05-27T04:44:49;18.20;66.70
45491;DHT22;31237;45.586;13.782;2023-05-27T04:47:16;18.20;67.10
45491;DHT22;31237;45.586;13.782;2023-05-27T04:49:42;18.20;67.90
45491;DHT22;31237;45.586;13.782;2023-05-27T04:52:09;18.20;67.00
45491;DHT22;31237;45.586;13.782;2023-05-27T04:54:35;18.30;66.80
45491;DHT22;31237;45.586;13.782;2023-05-27T04:57:01;18.30;66.80
45491;DHT22;31237;45.586;13.782;2023-05-27T04:59:27;18.40;66.90
45491;DHT22;31237;45.586;13.782;2023-05-27T05:02:12;18.40;66.90
45491;DHT22;31237;45.586;13.782;2023-05-27T05:04:47;18.40;66.70
45491;DHT22;31237;45.586;13.782;2023-05-27T05:07:13;18.50;66.70
45491;DHT22;31237;45.586;13.782;2023-05-27T05:09:39;18.50;66.70
45491;DHT22;31237;45.586;13.782;2023-05-27T05:12:05;18.60;66.60
45491;DHT22;31237;45.586;13.782;2023-05-27T05:14:31;18.60;66.20
45491;DHT22;31237;45.586;13.782;2023-05-27T05:16:57;18.70;66.10
45491;DHT22;31237;45.586;13.782;2023-05-27T05:19:23;18.70;66.20
45491;DHT22;31237;45.586;13.782;2023-05-27T05:21:48;18.80;66.30
45491;DHT22;31237;45.586;13.782;2023-05-27T05:24:14;18.80;66.30
45491;DHT22;31237;45.586;13.782;2023-05-27T05:26:40;18.90;66.30
45491;DHT22;31237;45.586;13.782;2023-05-27T05:29:06;18.90;66.20
45491;DHT22;31237;45.586;13.782;2023-05-27T05:31:31;19.00;65.70
45491;DHT22;31237;45.586;13.782;2023-05-27T05:33:57;19.00;65.70
45491;DHT22;31237;45.586;13.782;2023-05-27T05:36:23;19.10;65.50
45491;DHT22;31237;45.586;13.782;2023-05-27T05:38:49;19.10;65.30
45491;DHT22;31237;45.586;13.782;2023-05-27T05:41:15;19.20;65.20
45491;DHT22;31237;45.586;13.782;2023-05-27T05:43:40;19.20;65.20
45491;DHT22;31237;45.586;13.782;2023-05-27T05:46:06;19.30;65.10
45491;DHT22;31237;45.586;13.782;2023-05-27T05:48:32;19.40;64.60
45491;DHT22;31237;45.586;13.782;2023-05-27T05:50:58;19.40;64.60
45491;DHT22;31237;45.586;13.782;2023-05-27T05:53:26;19.50;64.80
45491;DHT22;31237;45.586;13.782;2023-05-27T05:55:52;19.60;64.90
45491;DHT22;31237;45.586;13.782;2023-05-27T05:58:17;19.70;64.30
45491;DHT22;31237;45.586;13.782;2023-05-27T06:00:43;19.70;64.00
45491;DHT22;31237;45.586;13.782;2023-05-27T06:03:09;19.80;63.90
45491;DHT22;31237;45.586;13.782;2023-05-27T06:05:34;19.90;64.00
45491;DHT22;31237;45.586;13.782;2023-05-27T06:08:00;20.00;64.30
45491;DHT22;31237;45.586;13.782;2023-05-27T06:10:26;20.10;64.30
45491;DHT22;31237;45.586;13.782;2023-05-27T06:12:51;20.10;64.10
45491;DHT22;31237;45.586;13.782;2023-05-27T06:15:17;20.30;64.10
45491;DHT22;31237;45.586;13.782;2023-05-27T06:17:44;20.30;63.80
45491;DHT22;31237;45.586;13.782;2023-05-27T06:20:10;20.40;63.70
45491;DHT22;31237;45.586;13.782;2023-05-27T06:22:36;20.50;63.60
45491;DHT22;31237;45.586;13.782;2023-05-27T06:25:01;20.60;63.20
45491;DHT22;31237;45.586;13.782;2023-05-27T06:27:27;20.70;62.80
45491;DHT22;31237;45.586;13.782;2023-05-27T06:29:53;20.80;62.70
45491;DHT22;31237;45.586;13.782;2023-05-27T06:32:19;20.90;62.90
45491;DHT22;31237;45.586;13.782;2023-05-27T06:34:46;21.00;61.30
45491;DHT22;31237;45.586;13.782;2023-05-27T06:37:11;21.10;62.00
45491;DHT22;31237;45.586;13.782;2023-05-27T06:39:37;21.20;61.70
45491;DHT22;31237;45.586;13.782;2023-05-27T06:42:03;21.20;61.50
45491;DHT22;31237;45.586;13.782;2023-05-27T06:44:29;21.30;61.60
45491;DHT22;31237;45.586;13.782;2023-05-27T06:46:55;21.40;61.30
45491;DHT22;31237;45.586;13.782;2023-05-27T06:49:20;21.50;60.90
45491;DHT22;31237;45.586;13.782;2023-05-27T06:51:46;21.60;60.90
45491;DHT22;31237;45.586;13.782;2023-05-27T06:54:12;21.70;60.50
45491;DHT22;31237;45.586;13.782;2023-05-27T06:56:38;21.80;60.40
45491;DHT22;31237;45.586;13.782;2023-05-27T06:59:03;21.90;59.80
45491;DHT22;31237;45.586;13.782;2023-05-27T07:01:29;22.00;59.80
45491;DHT22;31237;45.586;13.782;2023-05-27T07:03:56;22.10;59.70
45491;DHT22;31237;45.586;13.782;2023-05-27T07:06:22;22.20;59.40
45491;DHT22;31237;45.586;13.782;2023-05-27T07:08:48;22.30;58.50
45491;DHT22;31237;45.586;13.782;2023-05-27T07:11:13;22.40;57.90
45491;DHT22;31237;45.586;13.782;2023-05-27T07:13:39;22.40;57.70
45491;DHT22;31237;45.586;13.782;2023-05-27T07:16:05;22.50;57.20
45491;DHT22;31237;45.586;13.782;2023-05-27T07:18:30;22.50;57.10
45491;DHT22;31237;45.586;13.782;2023-05-27T07:20:56;22.60;56.50
45491;DHT22;31237;45.586;13.782;2023-05-27T07:23:22;22.70;56.60
45491;DHT22;31237;45.586;13.782;2023-05-27T07:25:47;22.80;56.40
45491;DHT22;31237;45.586;13.782;2023-05-27T07:28:13;22.80;56.20
45491;DHT22;31237;45.586;13.782;2023-05-27T07:30:39;22.90;55.50
45491;DHT22;31237;45.586;13.782;2023-05-27T07:33:05;23.00;55.40
45491;DHT22;31237;45.586;13.782;2023-05-27T07:35:30;23.00;55.70
45491;DHT22;31237;45.586;13.782;2023-05-27T07:37:56;23.20;56.00
45491;DHT22;31237;45.586;13.782;2023-05-27T07:40:22;23.30;55.50
45491;DHT22;31237;45.586;13.782;2023-05-27T07:42:47;23.40;54.70
45491;DHT22;31237;45.586;13.782;2023-05-27T07:45:13;23.50;54.40
45491;DHT22;31237;45.586;13.782;2023-05-27T07:47:39;23.60;54.10
45491;DHT22;31237;45.586;13.782;2023-05-27T07:50:05;23.60;53.30
45491;DHT22;31237;45.586;13.782;2023-05-27T07:52:31;23.70;52.70
45491;DHT22;31237;45.586;13.782;2023-05-27T07:54:56;23.70;51.40
45491;DHT22;31237;45.586;13.782;2023-05-27T07:57:23;23.70;50.70
45491;DHT22;31237;45.586;13.782;2023-05-27T07:59:49;23.70;49.40
45491;DHT22;31237;45.586;13.782;2023-05-27T08:02:14;23.70;50.30
45491;DHT22;31237;45.586;13.782;2023-05-27T08:04:40;23.70;51.60
45491;DHT22;31237;45.586;13.782;2023-05-27T08:07:09;23.80;51.20
45491;DHT22;31237;45.586;13.782;2023-05-27T08:09:35;23.80;50.80
45491;DHT22;31237;45.586;13.782;2023-05-27T08:12:00;24.00;50.80
45491;DHT22;31237;45.586;13.782;2023-05-27T08:14:27;24.00;50.80
45491;DHT22;31237;45.586;13.782;2023-05-27T08:16:54;24.10;51.00
45491;DHT22;31237;45.586;13.782;2023-05-27T08:19:19;24.20;50.60
45491;DHT22;31237;45.586;13.782;2023-05-27T08:21:45;24.20;50.10
45491;DHT22;31237;45.586;13.782;2023-05-27T08:24:12;24.30;50.80
45491;DHT22;31237;45.586;13.782;2023-05-27T08:26:39;24.30;49.80
45491;DHT22;31237;45.586;13.782;2023-05-27T08:29:05;24.30;49.50
45491;DHT22;31237;45.586;13.782;2023-05-27T08:31:31;24.30;49.50
45491;DHT22;31237;45.586;13.782;2023-05-27T08:33:57;24.40;50.00
45491;DHT22;31237;45.586;13.782;2023-05-27T08:36:22;24.50;49.80
45491;DHT22;31237;45.586;13.782;2023-05-27T08:38:48;24.50;49.20
45491;DHT22;31237;45.586;13.782;2023-05-27T08:41:14;24.50;49.20
45491;DHT22;31237;45.586;13.782;2023-05-27T08:43:41;24.60;50.10
45491;DHT22;31237;45.586;13.782;2023-05-27T08:46:08;24.70;50.30
45491;DHT22;31237;45.586;13.782;2023-05-27T08:48:33;24.70;49.80
45491;DHT22;31237;45.586;13.782;2023-05-27T08:50:59;24.80;49.60
45491;DHT22;31237;45.586;13.782;2023-05-27T08:53:28;24.90;50.00
45491;DHT22;31237;45.586;13.782;2023-05-27T08:55:54;24.90;50.10
45491;DHT22;31237;45.586;13.782;2023-05-27T08:58:23;25.00;49.90
45491;DHT22;31237;45.586;13.782;2023-05-27T09:00:49;25.00;49.10
45491;DHT22;31237;45.586;13.782;2023-05-27T09:03:15;25.10;48.90
45491;DHT22;31237;45.586;13.782;2023-05-27T09:05:42;25.20;49.20
45491;DHT22;31237;45.586;13.782;2023-05-27T09:08:07;25.20;49.50
45491;DHT22;31237;45.586;13.782;2023-05-27T09:10:39;25.30;48.80
45491;DHT22;31237;45.586;13.782;2023-05-27T09:13:05;25.40;48.60
45491;DHT22;31237;45.586;13.782;2023-05-27T09:15:32;25.40;47.90
45491;DHT22;31237;45.586;13.782;2023-05-27T09:17:58;25.40;47.90
45491;DHT22;31237;45.586;13.782;2023-05-27T09:20:28;25.40;47.60
45491;DHT22;31237;45.586;13.782;2023-05-27T09:23:03;25.40;47.50
45491;DHT22;31237;45.586;13.782;2023-05-27T09:25:29;25.40;47.00
45491;DHT22;31237;45.586;13.782;2023-05-27T09:27:55;25.40;47.10
45491;DHT22;31237;45.586;13.782;2023-05-27T09:30:22;25.40;46.80
45491;DHT22;31237;45.586;13.782;2023-05-27T09:32:49;25.40;46.80
45491;DHT22;31237;45.586;13.782;2023-05-27T09:35:16;25.40;47.00
45491;DHT22;31237;45.586;13.782;2023-05-27T09:37:42;25.50;47.10
45491;DHT22;31237;45.586;13.782;2023-05-27T09:40:12;25.50;47.10
45491;DHT22;31237;45.586;13.782;2023-05-27T09:42:41;25.60;47.50
45491;DHT22;31237;45.586;13.782;2023-05-27T09:45:12;25.60;47.50
45491;DHT22;31237;45.586;13.782;2023-05-27T09:47:58;25.70;46.90
45491;DHT22;31237;45.586;13.782;2023-05-27T09:50:25;25.80;47.10
45491;DHT22;31237;45.586;13.782;2023-05-27T09:52:52;25.80;46.50
45491;DHT22;31237;45.586;13.782;2023-05-27T09:55:19;25.90;46.20
45491;DHT22;31237;45.586;13.782;2023-05-27T09:57:45;25.90;45.60
45491;DHT22;31237;45.586;13.782;2023-05-27T10:00:12;25.90;45.90
45491;DHT22;31237;45.586;13.782;2023-05-27T10:02:46;25.90;45.80
45491;DHT22;31237;45.586;13.782;2023-05-27T10:05:13;26.00;45.90
45491;DHT22;31237;45.586;13.782;2023-05-27T10:07:41;26.00;45.30
45491;DHT22;31237;45.586;13.782;2023-05-27T10:10:09;26.00;45.10
45491;DHT22;31237;45.586;13.782;2023-05-27T10:12:39;26.00;45.90
45491;DHT22;31237;45.586;13.782;2023-05-27T10:15:06;26.10;45.90
45491;DHT22;31237;45.586;13.782;2023-05-27T10:17:52;26.10;46.20
45491;DHT22;31237;45.586;13.782;2023-05-27T10:20:39;26.20;46.70
45491;DHT22;31237;45.586;13.782;2023-05-27T10:25:47;26.60;46.50
45491;DHT22;31237;45.586;13.782;2023-05-27T10:28:35;26.70;46.80
45491;DHT22;31237;45.586;13.782;2023-05-27T10:31:05;26.70;46.40
45491;DHT22;31237;45.586;13.782;2023-05-27T10:33:35;26.80;46.70
45491;DHT22;31237;45.586;13.782;2023-05-27T10:36:14;26.90;46.90
45491;DHT22;31237;45.586;13.782;2023-05-27T10:38:55;26.90;46.40
45491;DHT22;31237;45.586;13.782;2023-05-27T10:41:21;27.00;46.90
45491;DHT22;31237;45.586;13.782;2023-05-27T10:43:55;27.00;46.30
45491;DHT22;31237;45.586;13.782;2023-05-27T10:46:21;27.10;46.10
45491;DHT22;31237;45.586;13.782;2023-05-27T10:48:47;27.20;46.00
45491;DHT22;31237;45.586;13.782;2023-05-27T10:51:13;27.20;46.10
45491;DHT22;31237;45.586;13.782;2023-05-27T10:53:39;27.20;46.20
45491;DHT22;31237;45.586;13.782;2023-05-27T10:56:05;27.20;46.30
45491;DHT22;31237;45.586;13.782;2023-05-27T10:58:35;27.30;46.10
45491;DHT22;31237;45.586;13.782;2023-05-27T11:01:10;27.30;45.90
45491;DHT22;31237;45.586;13.782;2023-05-27T11:03:44;27.40;46.40
45491;DHT22;31237;45.586;13.782;2023-05-27T11:06:11;27.50;46.30
45491;DHT22;31237;45.586;13.782;2023-05-27T11:08:38;27.50;46.60
45491;DHT22;31237;45.586;13.782;2023-05-27T11:11:12;27.60;46.30
45491;DHT22;31237;45.586;13.782;2023-05-27T11:13:41;27.60;46.50
45491;DHT22;31237;45.586;13.782;2023-05-27T11:16:08;27.60;46.40
45491;DHT22;31237;45.586;13.782;2023-05-27T11:18:45;27.70;46.60
45491;DHT22;31237;45.586;13.782;2023-05-27T11:21:12;27.80;46.70
45491;DHT22;31237;45.586;13.782;2023-05-27T11:23:42;27.80;46.70
45491;DHT22;31237;45.586;13.782;2023-05-27T11:28:55;27.90;46.90
45491;DHT22;31237;45.586;13.782;2023-05-27T11:31:28;27.90;46.30
45491;DHT22;31237;45.586;13.782;2023-05-27T11:33:54;27.80;45.70
45491;DHT22;31237;45.586;13.782;2023-05-27T11:36:20;27.80;45.60
45491;DHT22;31237;45.586;13.782;2023-05-27T11:41:12;27.90;46.00
45491;DHT22;31237;45.586;13.782;2023-05-27T11:44:07;27.80;45.40
45491;DHT22;31237;45.586;13.782;2023-05-27T11:46:41;27.80;45.40
45491;DHT22;31237;45.586;13.782;2023-05-27T11:49:10;27.80;45.90
45491;DHT22;31237;45.586;13.782;2023-05-27T11:51:44;27.80;45.60
45491;DHT22;31237;45.586;13.782;2023-05-27T11:54:28;27.80;45.70
45491;DHT22;31237;45.586;13.782;2023-05-27T11:56:56;27.80;45.90
45491;DHT22;31237;45.586;13.782;2023-05-27T11:59:23;27.80;45.30
45491;DHT22;31237;45.586;13.782;2023-05-27T12:01:49;27.80;45.90
45491;DHT22;31237;45.586;13.782;2023-05-27T12:04:15;27.80;46.10
45491;DHT22;31237;45.586;13.782;2023-05-27T12:06:42;27.80;45.90
45491;DHT22;31237;45.586;13.782;2023-05-27T12:09:09;27.90;45.00
45491;DHT22;31237;45.586;13.782;2023-05-27T12:11:36;27.90;45.10
45491;DHT22;31237;45.586;13.782;2023-05-27T12:14:02;27.80;45.30
45491;DHT22;31237;45.586;13.782;2023-05-27T12:16:28;27.80;45.70
45491;DHT22;31237;45.586;13.782;2023-05-27T12:18:54;27.80;44.80
45491;DHT22;31237;45.586;13.782;2023-05-27T12:21:20;27.70;45.20
45491;DHT22;31237;45.586;13.782;2023-05-27T12:23:46;27.70;44.90
45491;DHT22;31237;45.586;13.782;2023-05-27T12:26:13;27.70;45.20
45491;DHT22;31237;45.586;13.782;2023-05-27T12:28:39;27.60;45.40
45491;DHT22;31237;45.586;13.782;2023-05-27T12:31:06;27.60;45.30
45491;DHT22;31237;45.586;13.782;2023-05-27T12:33:32;27.60;45.20
45491;DHT22;31237;45.586;13.782;2023-05-27T12:35:58;27.50;45.60
45491;DHT22;31237;45.586;13.782;2023-05-27T12:38:24;27.50;45.80
45491;DHT22;31237;45.586;13.782;2023-05-27T12:40:50;27.50;45.80
45491;DHT22;31237;45.586;13.782;2023-05-27T12:43:17;27.50;45.00
45491;DHT22;31237;45.586;13.782;2023-05-27T12:45:44;27.50;44.80
45491;DHT22;31237;45.586;13.782;2023-05-27T12:48:11;27.40;45.40
45491;DHT22;31237;45.586;13.782;2023-05-27T12:50:37;27.40;45.00
45491;DHT22;31237;45.586;13.782;2023-05-27T12:53:02;27.40;45.90
45491;DHT22;31237;45.586;13.782;2023-05-27T12:55:28;27.40;45.80
45491;DHT22;31237;45.586;13.782;2023-05-27T12:57:55;27.40;45.30
45491;DHT22;31237;45.586;13.782;2023-05-27T13:00:21;27.30;44.30
45491;DHT22;31237;45.586;13.782;2023-05-27T13:02:47;27.20;44.90
45491;DHT22;31237;45.586;13.782;2023-05-27T13:05:14;27.20;45.50
45491;DHT22;31237;45.586;13.782;2023-05-27T13:07:51;27.20;45.40
45491;DHT22;31237;45.586;13.782;2023-05-27T13:10:17;27.20;45.30
45491;DHT22;31237;45.586;13.782;2023-05-27T13:12:47;27.10;45.40
45491;DHT22;31237;45.586;13.782;2023-05-27T13:15:13;27.00;45.50
45491;DHT22;31237;45.586;13.782;2023-05-27T13:17:39;27.10;45.50
45491;DHT22;31237;45.586;13.782;2023-05-27T13:20:05;27.10;45.80
45491;DHT22;31237;45.586;13.782;2023-05-27T13:22:31;27.00;45.80
45491;DHT22;31237;45.586;13.782;2023-05-27T13:24:57;27.10;46.20
45491;DHT22;31237;45.586;13.782;2023-05-27T13:27:23;27.10;46.40
45491;DHT22;31237;45.586;13.782;2023-05-27T13:29:49;27.00;46.00
45491;DHT22;31237;45.586;13.782;2023-05-27T13:32:14;27.10;46.10
45491;DHT22;31237;45.586;13.782;2023-05-27T13:34:40;27.10;46.00
45491;DHT22;31237;45.586;13.782;2023-05-27T13:37:06;27.00;46.10
45491;DHT22;31237;45.586;13.782;2023-05-27T13:39:32;27.00;46.00
45491;DHT22;31237;45.586;13.782;2023-05-27T13:41:58;26.90;45.90
45491;DHT22;31237;45.586;13.782;2023-05-27T13:44:24;26.90;45.60
45491;DHT22;31237;45.586;13.782;2023-05-27T13:46:50;26.90;45.70
45491;DHT22;31237;45.586;13.782;2023-05-27T13:49:16;26.90;46.10
45491;DHT22;31237;45.586;13.782;2023-05-27T13:51:45;26.90;45.70
45491;DHT22;31237;45.586;13.782;2023-05-27T13:54:12;26.80;46.00
45491;DHT22;31237;45.586;13.782;2023-05-27T13:56:38;26.80;46.40
45491;DHT22;31237;45.586;13.782;2023-05-27T13:59:04;26.80;46.40
45491;DHT22;31237;45.586;13.782;2023-05-27T14:01:31;26.80;46.30
45491;DHT22;31237;45.586;13.782;2023-05-27T14:03:57;26.80;46.20
45491;DHT22;31237;45.586;13.782;2023-05-27T14:06:22;26.70;45.90
45491;DHT22;31237;45.586;13.782;2023-05-27T14:08:48;26.70;46.00
45491;DHT22;31237;45.586;13.782;2023-05-27T14:11:14;26.70;46.10
45491;DHT22;31237;45.586;13.782;2023-05-27T14:13:40;26.60;46.30
45491;DHT22;31237;45.586;13.782;2023-05-27T14:16:06;26.70;46.70
45491;DHT22;31237;45.586;13.782;2023-05-27T14:18:32;26.70;46.50
45491;DHT22;31237;45.586;13.782;2023-05-27T14:20:58;26.60;46.80
45491;DHT22;31237;45.586;13.782;2023-05-27T14:23:23;26.70;46.70
45491;DHT22;31237;45.586;13.782;2023-05-27T14:25:49;26.70;46.80
45491;DHT22;31237;45.586;13.782;2023-05-27T14:28:15;26.60;46.90
45491;DHT22;31237;45.586;13.782;2023-05-27T14:30:41;26.60;46.50
45491;DHT22;31237;45.586;13.782;2023-05-27T14:33:08;26.60;46.40
45491;DHT22;31237;45.586;13.782;2023-05-27T14:35:37;26.60;46.70
45491;DHT22;31237;45.586;13.782;2023-05-27T14:38:04;26.50;47.00
45491;DHT22;31237;45.586;13.782;2023-05-27T14:40:31;26.50;47.40
45491;DHT22;31237;45.586;13.782;2023-05-27T14:42:57;26.50;47.40
45491;DHT22;31237;45.586;13.782;2023-05-27T14:45:23;26.50;47.60
45491;DHT22;31237;45.586;13.782;2023-05-27T14:47:49;26.50;47.60
45491;DHT22;31237;45.586;13.782;2023-05-27T14:50:21;26.50;47.80
45491;DHT22;31237;45.586;13.782;2023-05-27T14:52:49;26.50;47.50
45491;DHT22;31237;45.586;13.782;2023-05-27T14:55:15;26.50;47.30
45491;DHT22;31237;45.586;13.782;2023-05-27T14:57:40;26.50;47.30
45491;DHT22;31237;45.586;13.782;2023-05-27T15:00:07;26.40;47.50
45491;DHT22;31237;45.586;13.782;2023-05-27T15:02:35;26.40;47.50
45491;DHT22;31237;45.586;13.782;2023-05-27T15:05:05;26.40;47.70
45491;DHT22;31237;45.586;13.782;2023-05-27T15:07:35;26.40;48.10
45491;DHT22;31237;45.586;13.782;2023-05-27T15:10:00;26.30;48.10
45491;DHT22;31237;45.586;13.782;2023-05-27T15:12:43;26.30;48.30
45491;DHT22;31237;45.586;13.782;2023-05-27T15:15:11;26.40;48.00
45491;DHT22;31237;45.586;13.782;2023-05-27T15:17:38;26.30;48.20
45491;DHT22;31237;45.586;13.782;2023-05-27T15:20:06;26.30;47.80
45491;DHT22;31237;45.586;13.782;2023-05-27T15:22:32;26.30;47.70
45491;DHT22;31237;45.586;13.782;2023-05-27T15:24:58;26.30;47.70